EDFHLIPR

Guest
Details From EDFH - Frankfurt Hahn
To LIPR - Rimini Mil
Flight Number -
Tags Generated
Created
Modified
Stats Distance 417 nm / 772 km
Max Altitude 0 ft / 0 m
Waypoints 3
Social Downloads 0
Likes 0
Share VATSIM

Download

Looking for another format? Having issues loading an existing format? Contact us
Advertisement - Login to hide

Notes

Generated

Route

EDFH RIM99 LIPR

ID Type Via Altitude Latitude Longitude Leg Dist Tot Dist Heading (true) Name
O EDFH APT - 0 ft / 0 m 49.93139˚ 7.24688˚ - 0 nm - -
RIM99 FIX - 0 ft / 0 m 44.02567˚ 12.59785˚ 416 nm 416 nm 146° / 150° -
O LIPR APT - 0 ft / 0 m 44.02853˚ 12.59696˚ 0 nm 416 nm 347° / 347° -

Altitude Profile

Advertisement - Login to hide

Weather


0- 5 10 15 20 25 30 35+ Temperature / ° C

Clouds and Precipitation
Forecast for 2017-12-11 06:00 UTC. Updated an hour ago

Ground ~20,000 ft ~40,000 ft Winds

EDFH

Details ICAO EDFH (HHN)
Name Frankfurt Hahn
Region Germany - Civil
Timezone Europe/Berlin (UTC+1.0)
Stats Elevation 1,649 ft / 503 m (AMSL)
Location 49.945808° 7.261082°
Runways 1
Magnetic Variation 1.981° E

METAR

EDFH 110420Z 14007KT 9999 FEW008 SCT015 02/02 Q0983

Decode

TAF

TAF EDFH 102300Z 1100/1124 24012KT 9999 BKN010 TEMPO 1100/1104 BKN009 BECMG 1104/1106 14015G30KT BECMG 1104/1107 4000 -RA BKN009 TEMPO 1105/1115 2500 RA BKN004 PROB30 TEMPO 1106/1113 0800 +RA FG BKN001 BECMG 1116/1119 20015G25KT 9000 SCT010 BKN020 TEMPO 1120/1124 3000 RASN BKN005

Decode

Departure Runways

ID Width Length Bearing (true) Bearing (mag) Surface Threshold Offset Overrun Length
03 148 ft / 45 m 12,457 ft / 3,797 m 32.37° 30.39° Asphalt 3,461 ft / 1,055 m 0 ft / 0 m
21 148 ft / 45 m 12,457 ft / 3,797 m 212.39° 210.41° Asphalt 984 ft / 300 m 0 ft / 0 m

LIPR

Details ICAO LIPR (RMI)
Name Rimini Mil
Region Italy
Timezone Europe/Rome (UTC+1.0)
Stats Elevation 41 ft / 12 m (AMSL)
Location 44.020286° 12.611746°
Runways 1
Magnetic Variation 3.166° E

METAR

LIPR 110415Z 00000KT 6000 -RA SCT020 BKN040 02/02 Q1002

Decode

TAF

Not found

Destination Runways

ID Width Length Bearing (true) Bearing (mag) Surface Threshold Offset Overrun Length
13 148 ft / 45 m 9,818 ft / 2,992 m 127.79° 124.62° Asphalt 1,030 ft / 314 m 846 ft / 258 m
31 148 ft / 45 m 9,818 ft / 2,992 m 307.81° 304.64° Asphalt 1,006 ft / 307 m 376 ft / 115 m

Approach Navaids

Runway Type Ident Frequency Range Bearing (true) Bearing (mag) Slope Elevation
31 Localiser MIR 109.30 MHz 18 nm / 33 km 307.77° 304.60° - 41 ft / 12 m (AMSL)
31 Glidescope MIR 109.30 MHz 10 nm / 19 km 307.80° 304.63° 3.00° 41 ft / 12 m (AMSL)